Warrensburg, MO

12:48 PM CST on March 04, 2015 (GMT -0600)
Downtown | Change Station
CLOSE
Current Station
Personal Weather Station
Location: Warrensburg, MO
Elevation: 856 ft
Nearby Weather Stations

Elev 856 ft 38.76 °N, 93.74 °W | Updated 13 minutes ago

Overcast
Overcast
26.4 °F
Feels Like 18 °F
N
7.8
Wind Variable Wind from NNE

Today
High -- | Low -- °F
--% Chance of Precip.
Yesterday
High -- | Low -- °F
Precip. -- in
6:43 AM 6:10 PM
Waxing Gibbous, 99% visible
Pressure 30.30 in
Visibility 10.0 miles
Clouds Scattered Clouds 9000 ft
Overcast 11000 ft
Windchill 18 °F
Dew Point 9 °F
Humidity 47%
Rainfall 0.00 in
Snow Depth Not available.
UV 2 out of 12
Pollen .60 out of 12
Air Quality Not available.
Flu Activity Not available.
METAR KRCM 041835Z AUTO 36013G17KT 10SM SCT090 OVC110 M03/M15 A3030 RMK AO2

More Conditions Fewer Conditions

Pressure 30.30 in
Visibility 10.0 miles
Clouds Scattered Clouds 9000 ft
Overcast 11000 ft
Windchill 18 °F
Dew Point 9 °F
Humidity 47%
Rainfall 0.00 in
Snow Depth Not available.
UV 2 out of 12
Pollen .60 out of 12
Air Quality Not available.
Flu Activity Not available.
METAR KRCM 041835Z AUTO 36013G17KT 10SM SCT090 OVC110 M03/M15 A3030 RMK AO2

More Conditions Fewer Conditions

10-Day Weather Forecast

Almanac

Astronomy

Mar. 04, 2015 Rise Set
Actual Time
Civil Twilight
Nautical Twilight
Astronomical Twilight
Moon
Length of Visible Light
Length of Day
Tomorrow will be .
, % of the Moon is Illuminated

Today's Extremes

State Highs State Lows

Community

WunderPhotos

Upload Photos

1,802,536 photos uploaded!

WunderBlogs® & News

Nearby

Air Quality

  Air Quality AQ Index Pollutant
Not available.

Snow Depth

Station Depth Elevation

Earthquake Activity

City Distance Mag. Time & Date
Minimum magnitude displayed is 2.5.

Coastal Water Temperatures

Place Temperature

Nearby Weather Stations